createdAt,value
2023-01-19T00:00:08.568Z,1.9
2023-01-19T00:01:11.745Z,1.9
2023-01-19T00:02:14.748Z,1.9
2023-01-19T00:03:18.007Z,1.9
2023-01-19T00:04:21.013Z,1.9
2023-01-19T00:05:23.685Z,1.9
2023-01-19T00:06:27.080Z,1.9
2023-01-19T00:07:30.336Z,1.9
2023-01-19T00:08:33.574Z,2
2023-01-19T00:09:36.661Z,1.9
2023-01-19T00:10:39.996Z,2
2023-01-19T00:11:43.077Z,2
2023-01-19T00:12:46.422Z,2
2023-01-19T00:13:50.342Z,2
2023-01-19T00:14:54.151Z,2
2023-01-19T00:15:57.467Z,2
2023-01-19T00:17:01.321Z,2
2023-01-19T00:18:04.164Z,2
2023-01-19T00:19:07.243Z,2
2023-01-19T00:20:10.195Z,2
2023-01-19T00:21:12.689Z,2
2023-01-19T00:22:16.103Z,2
2023-01-19T00:23:19.324Z,2
2023-01-19T00:24:22.344Z,2
2023-01-19T00:25:26.416Z,2
2023-01-19T00:26:29.156Z,2
2023-01-19T00:27:32.770Z,2
2023-01-19T00:28:35.974Z,2
2023-01-19T00:29:39.471Z,2
2023-01-19T00:30:42.700Z,2
2023-01-19T00:31:46.529Z,2
2023-01-19T00:32:49.900Z,2
2023-01-19T00:33:53.733Z,2.1
2023-01-19T00:34:57.230Z,2.1
2023-01-19T00:35:59.971Z,2.1
2023-01-19T00:37:02.801Z,2.1
2023-01-19T00:38:05.333Z,2.1
2023-01-19T00:39:08.348Z,2.1
2023-01-19T00:40:11.382Z,2.1
2023-01-19T00:41:14.350Z,2.1
2023-01-19T00:42:17.318Z,2.1
2023-01-19T00:43:20.156Z,2.1
2023-01-19T00:44:23.485Z,2.1
2023-01-19T00:45:27.034Z,2.1
2023-01-19T00:46:30.604Z,2.1
2023-01-19T00:47:33.040Z,2.1
2023-01-19T00:48:35.860Z,2.1
2023-01-19T00:49:39.267Z,2.1
2023-01-19T00:50:42.403Z,2.1
2023-01-19T00:51:45.373Z,2.1
2023-01-19T00:52:48.253Z,2.2
2023-01-19T00:53:51.329Z,2.2
2023-01-19T00:54:53.816Z,2.2
2023-01-19T00:55:57.548Z,2.2
2023-01-19T00:56:59.711Z,2.2
2023-01-19T00:58:02.743Z,2.2
2023-01-19T00:59:05.518Z,2.2
2023-01-19T01:00:08.941Z,2.2
2023-01-19T01:01:12.846Z,2.2
2023-01-19T01:02:17.794Z,2.2
2023-01-19T01:03:22.178Z,2.3
2023-01-19T01:04:26.268Z,2.3
2023-01-19T01:05:28.740Z,2.3
2023-01-19T01:06:31.732Z,2.3
2023-01-19T01:07:34.662Z,2.3
2023-01-19T01:08:38.625Z,2.3
2023-01-19T01:09:42.153Z,2.3
2023-01-19T01:10:44.570Z,2.3
2023-01-19T01:11:47.350Z,2.3
2023-01-19T01:12:59.359Z,2.4
2023-01-19T01:14:32.446Z,2.3
2023-01-19T01:15:35.595Z,2.4
2023-01-19T01:16:39.261Z,2.4
2023-01-19T01:17:43.202Z,2.4
2023-01-19T01:18:45.942Z,2.4
2023-01-19T01:19:48.405Z,2.4
2023-01-19T01:20:52.419Z,2.4
2023-01-19T01:21:58.032Z,2.4
2023-01-19T01:23:02.314Z,2.4
2023-01-19T01:24:06.829Z,2.4
2023-01-19T01:25:09.058Z,2.4
2023-01-19T01:26:12.515Z,2.4
2023-01-19T01:27:15.253Z,2.5
2023-01-19T01:28:18.406Z,2.5
2023-01-19T01:29:22.210Z,2.5
2023-01-19T01:30:25.670Z,2.5
2023-01-19T01:31:29.206Z,2.4
2023-01-19T01:32:33.104Z,2.5
2023-01-19T01:33:42.599Z,2.5
2023-01-19T01:34:45.648Z,2.5
2023-01-19T01:35:48.399Z,2.5
2023-01-19T01:36:51.498Z,2.5
2023-01-19T01:37:54.499Z,2.5
2023-01-19T01:38:57.569Z,2.5
2023-01-19T01:40:00.638Z,2.5
2023-01-19T01:41:03.653Z,2.5
2023-01-19T01:42:06.555Z,2.5
2023-01-19T01:43:09.647Z,2.5
2023-01-19T01:44:13.124Z,2.5
2023-01-19T01:45:16.298Z,2.5
2023-01-19T01:46:19.665Z,2.5
2023-01-19T01:47:23.439Z,2.4
2023-01-19T01:48:26.975Z,2.4
2023-01-19T01:49:30.689Z,2.4
2023-01-19T01:50:32.646Z,2.4
2023-01-19T01:51:35.552Z,2.4
2023-01-19T01:52:38.985Z,2.4
2023-01-19T01:53:42.351Z,2.4
2023-01-19T01:54:45.342Z,2.5
2023-01-19T01:55:47.779Z,2.5
2023-01-19T01:56:50.863Z,2.5
2023-01-19T01:57:55.172Z,2.5
2023-01-19T01:58:58.532Z,2.5
2023-01-19T02:00:00.976Z,2.5
2023-01-19T02:01:03.901Z,2.5
2023-01-19T02:02:07.767Z,2.5
2023-01-19T02:03:13.050Z,2.5
2023-01-19T02:04:16.746Z,2.5
2023-01-19T02:05:20.171Z,2.5
2023-01-19T02:06:22.884Z,2.5
2023-01-19T02:07:26.267Z,2.5
2023-01-19T02:08:29.441Z,2.5
2023-01-19T02:09:33.170Z,2.5
2023-01-19T02:10:35.421Z,2.5
2023-01-19T02:11:38.245Z,2.5
2023-01-19T02:12:41.986Z,2.5
2023-01-19T02:13:44.305Z,2.5
2023-01-19T02:14:47.790Z,2.5
2023-01-19T02:15:50.514Z,2.5
2023-01-19T02:16:54.210Z,2.5
2023-01-19T02:17:57.894Z,2.5
2023-01-19T02:19:00.974Z,2.5
2023-01-19T02:20:04.383Z,2.5
2023-01-19T02:21:08.487Z,2.5
2023-01-19T02:22:11.509Z,2.5
2023-01-19T02:23:14.673Z,2.5
2023-01-19T02:24:17.551Z,2.5
2023-01-19T02:25:20.063Z,2.4
2023-01-19T02:26:24.018Z,2.5
2023-01-19T02:27:27.463Z,2.5
2023-01-19T02:28:30.513Z,2.5
2023-01-19T02:29:33.224Z,2.5
2023-01-19T02:30:36.654Z,2.5
2023-01-19T02:31:39.675Z,2.5
2023-01-19T02:32:42.744Z,2.5
2023-01-19T02:33:46.154Z,2.5
2023-01-19T02:34:49.421Z,2.6
2023-01-19T02:35:52.936Z,2.5
2023-01-19T02:36:56.705Z,2.5
2023-01-19T02:37:59.270Z,2.5
2023-01-19T02:39:01.850Z,2.5
2023-01-19T02:40:04.610Z,2.5
2023-01-19T02:41:08.037Z,2.5
2023-01-19T02:42:11.370Z,2.5
2023-01-19T02:43:14.652Z,2.5
2023-01-19T02:44:17.106Z,2.6
2023-01-19T02:45:20.955Z,2.6
2023-01-19T02:46:23.751Z,2.6
2023-01-19T02:47:26.963Z,2.6
2023-01-19T02:48:29.836Z,2.6
2023-01-19T02:49:32.944Z,2.6
2023-01-19T02:50:35.947Z,2.7
2023-01-19T02:51:39.721Z,2.7
2023-01-19T02:52:42.840Z,2.7
2023-01-19T02:53:45.533Z,2.7
2023-01-19T02:54:48.529Z,2.7
2023-01-19T02:55:51.867Z,2.7
2023-01-19T02:56:54.922Z,2.7
2023-01-19T02:57:58.104Z,2.7
2023-01-19T02:59:00.817Z,2.8
2023-01-19T03:00:03.052Z,2.8
2023-01-19T03:01:06.376Z,2.8
2023-01-19T03:02:10.259Z,2.8
2023-01-19T03:03:14.093Z,2.8
2023-01-19T03:04:17.356Z,2.8
2023-01-19T03:05:20.448Z,2.8
2023-01-19T03:06:23.400Z,2.8
2023-01-19T03:07:27.258Z,2.8
2023-01-19T03:08:31.084Z,2.8
2023-01-19T03:09:34.104Z,2.8
2023-01-19T03:10:37.476Z,2.8
2023-01-19T03:11:39.935Z,2.8
2023-01-19T03:12:42.746Z,2.8
2023-01-19T03:13:45.790Z,2.8
2023-01-19T03:14:49.457Z,2.9
2023-01-19T03:15:53.548Z,2.8
2023-01-19T03:16:57.324Z,2.8
2023-01-19T03:18:00.484Z,2.9
2023-01-19T03:19:03.923Z,2.8
2023-01-19T03:20:07.380Z,2.9
2023-01-19T03:21:10.791Z,2.9
2023-01-19T03:22:14.199Z,2.8
2023-01-19T03:23:18.205Z,2.9
2023-01-19T03:24:21.239Z,2.8
2023-01-19T03:25:23.986Z,2.8
2023-01-19T03:26:26.629Z,2.8
2023-01-19T03:27:29.369Z,2.8
2023-01-19T03:28:32.472Z,2.8
2023-01-19T03:29:35.752Z,2.8
2023-01-19T03:30:39.087Z,2.8
2023-01-19T03:31:42.626Z,2.8
2023-01-19T03:32:45.380Z,2.8
2023-01-19T03:33:48.823Z,2.8
2023-01-19T03:34:51.337Z,2.8
2023-01-19T03:35:54.339Z,2.8
2023-01-19T03:36:57.498Z,2.8
2023-01-19T03:38:00.588Z,2.8
2023-01-19T03:39:04.495Z,2.8
2023-01-19T03:40:07.924Z,2.8
2023-01-19T03:41:11.855Z,2.8
2023-01-19T03:42:14.998Z,2.8
2023-01-19T03:43:18.102Z,2.8
2023-01-19T03:44:21.007Z,2.8
2023-01-19T03:45:24.371Z,2.8
2023-01-19T03:46:28.347Z,2.8
2023-01-19T03:47:31.824Z,2.8
2023-01-19T03:48:35.112Z,2.8
2023-01-19T03:49:38.182Z,2.8
2023-01-19T03:50:41.170Z,2.8
2023-01-19T03:51:43.897Z,2.8
2023-01-19T03:52:46.705Z,2.8
2023-01-19T03:53:49.758Z,2.8
2023-01-19T03:54:53.542Z,2.8
2023-01-19T03:55:56.367Z,2.8
2023-01-19T03:56:59.069Z,2.8
2023-01-19T03:58:02.315Z,2.8
2023-01-19T03:59:05.952Z,2.8
2023-01-19T04:00:08.705Z,2.9
2023-01-19T04:01:12.111Z,2.9
2023-01-19T04:02:16.044Z,2.9
2023-01-19T04:03:20.607Z,2.9
2023-01-19T04:04:23.903Z,2.9
2023-01-19T04:05:26.795Z,2.9
2023-01-19T04:06:29.808Z,2.9
2023-01-19T04:07:33.160Z,2.9
2023-01-19T04:08:37.247Z,2.9
2023-01-19T04:09:40.586Z,2.9
2023-01-19T04:10:44.191Z,2.9
2023-01-19T04:11:47.609Z,2.9
2023-01-19T04:12:50.118Z,2.9
2023-01-19T04:13:53.928Z,2.9
2023-01-19T04:14:56.859Z,2.9
2023-01-19T04:15:59.685Z,2.9
2023-01-19T04:17:02.968Z,2.9
2023-01-19T04:18:05.799Z,2.9
2023-01-19T04:19:08.824Z,3
2023-01-19T04:20:12.248Z,3
2023-01-19T04:21:15.332Z,2.9
2023-01-19T04:22:18.033Z,3
2023-01-19T04:23:21.103Z,2.9
2023-01-19T04:24:23.793Z,3
2023-01-19T04:25:27.218Z,3
2023-01-19T04:26:31.011Z,3
2023-01-19T04:27:34.406Z,3
2023-01-19T04:28:36.949Z,3
2023-01-19T04:29:39.538Z,3
2023-01-19T04:30:42.525Z,3
2023-01-19T04:31:45.982Z,3
2023-01-19T04:32:49.044Z,3
2023-01-19T04:33:52.343Z,3
2023-01-19T04:34:55.418Z,3
2023-01-19T04:35:58.479Z,3
2023-01-19T04:37:01.550Z,3
2023-01-19T04:38:04.905Z,3
2023-01-19T04:39:07.991Z,3.1
2023-01-19T04:40:11.074Z,3
2023-01-19T04:41:14.479Z,3
2023-01-19T04:42:17.976Z,3
2023-01-19T04:43:21.830Z,3
2023-01-19T04:44:24.653Z,3
2023-01-19T04:45:27.714Z,3
2023-01-19T04:46:30.843Z,3
2023-01-19T04:47:34.032Z,3
2023-01-19T04:48:37.562Z,3
2023-01-19T04:49:43.776Z,3
2023-01-19T04:50:47.719Z,3
2023-01-19T04:51:50.689Z,3
2023-01-19T04:52:53.864Z,3
2023-01-19T04:53:56.516Z,3
2023-01-19T04:55:00.103Z,3
2023-01-19T04:56:03.484Z,3
2023-01-19T04:57:06.514Z,3
2023-01-19T04:58:10.396Z,3
2023-01-19T04:59:14.146Z,3
2023-01-19T05:00:17.204Z,3.1
2023-01-19T05:01:20.666Z,3
2023-01-19T05:02:25.034Z,3.1
2023-01-19T05:03:28.340Z,3
2023-01-19T05:04:31.222Z,3.1
2023-01-19T05:05:34.305Z,3.1
2023-01-19T05:06:37.408Z,3.1
2023-01-19T05:07:40.397Z,3.1
2023-01-19T05:08:46.178Z,3
2023-01-19T05:09:48.562Z,3
2023-01-19T05:10:51.943Z,3
2023-01-19T05:11:55.416Z,3.1
2023-01-19T05:13:00.031Z,3
2023-01-19T05:14:05.379Z,3
2023-01-19T05:15:08.804Z,3
2023-01-19T05:16:12.017Z,3
2023-01-19T05:17:15.216Z,3
2023-01-19T05:18:17.730Z,3
2023-01-19T05:19:20.243Z,3
2023-01-19T05:20:23.238Z,3
2023-01-19T05:21:26.342Z,3
2023-01-19T05:22:29.708Z,3
2023-01-19T05:23:33.171Z,3
2023-01-19T05:24:36.331Z,3
2023-01-19T05:25:39.644Z,3
2023-01-19T05:26:43.010Z,3.1
2023-01-19T05:27:46.726Z,3
2023-01-19T05:28:49.905Z,3
2023-01-19T05:29:54.107Z,3.1
2023-01-19T05:30:57.077Z,3
2023-01-19T05:32:01.213Z,3
2023-01-19T05:33:04.899Z,3
2023-01-19T05:34:07.453Z,3
2023-01-19T05:35:09.627Z,3
2023-01-19T05:36:13.047Z,3
2023-01-19T05:37:15.819Z,3
2023-01-19T05:38:36.239Z,3
2023-01-19T05:39:39.717Z,3
2023-01-19T05:40:42.949Z,3
2023-01-19T05:41:46.196Z,3
2023-01-19T05:42:49.664Z,3
2023-01-19T05:43:53.068Z,3
2023-01-19T05:44:56.508Z,3
2023-01-19T05:46:00.699Z,3
2023-01-19T05:47:03.733Z,3
2023-01-19T05:48:08.193Z,3
2023-01-19T05:49:12.429Z,3
2023-01-19T05:50:15.622Z,3
2023-01-19T05:51:18.814Z,3
2023-01-19T05:52:20.971Z,3
2023-01-19T05:53:24.140Z,3
2023-01-19T05:54:26.375Z,3
2023-01-19T05:55:29.585Z,3
2023-01-19T05:56:32.694Z,3
2023-01-19T05:57:36.007Z,3.1
2023-01-19T05:58:39.261Z,3.1
2023-01-19T05:59:42.094Z,3.1
2023-01-19T06:00:45.908Z,3.1
2023-01-19T06:01:49.874Z,3.1
2023-01-19T06:02:53.419Z,3.1
2023-01-19T06:03:56.851Z,3.1
2023-01-19T06:04:59.651Z,3.1
2023-01-19T06:06:02.392Z,3.1
2023-01-19T06:07:05.630Z,3.1
2023-01-19T06:08:08.863Z,3.1
2023-01-19T06:09:11.916Z,3.1
2023-01-19T06:10:15.643Z,3.1
2023-01-19T06:11:18.411Z,3.1
2023-01-19T06:12:21.489Z,3.1
2023-01-19T06:13:24.228Z,3.1
2023-01-19T06:14:26.927Z,3.1
2023-01-19T06:15:30.371Z,3.1
2023-01-19T06:16:34.085Z,3.1
2023-01-19T06:17:38.113Z,3.1
2023-01-19T06:18:41.550Z,3.1
2023-01-19T06:19:44.914Z,3.1
2023-01-19T06:20:48.952Z,3.2
2023-01-19T06:21:51.817Z,3.2
2023-01-19T06:22:54.655Z,3.2
2023-01-19T06:23:57.723Z,3.2
2023-01-19T06:25:01.096Z,3.2
2023-01-19T06:26:04.535Z,3.2
2023-01-19T06:27:07.308Z,3.2
2023-01-19T06:28:10.438Z,3.2
2023-01-19T06:29:13.788Z,3.2
2023-01-19T06:30:16.838Z,3.2
2023-01-19T06:31:19.750Z,3.2
2023-01-19T06:32:23.782Z,3.1
2023-01-19T06:33:27.773Z,3.2
2023-01-19T06:34:30.922Z,3.2
2023-01-19T06:35:34.181Z,3.2
2023-01-19T06:36:37.317Z,3.2
2023-01-19T06:37:40.134Z,3.2
2023-01-19T06:38:43.905Z,3.2
2023-01-19T06:39:47.588Z,3.2
2023-01-19T06:40:50.649Z,3.2
2023-01-19T06:41:53.460Z,3.2
2023-01-19T06:42:56.824Z,3.2
2023-01-19T06:44:00.124Z,3.2
2023-01-19T06:45:03.457Z,3.1
2023-01-19T06:46:06.555Z,3.2
2023-01-19T06:47:17.140Z,3.2
2023-01-19T06:48:20.892Z,3.1
2023-01-19T06:49:24.754Z,3.2
2023-01-19T06:50:28.397Z,3.1
2023-01-19T06:51:31.747Z,3.2
2023-01-19T06:52:35.116Z,3.2
2023-01-19T06:53:37.362Z,3.2
2023-01-19T06:54:40.785Z,3.2
2023-01-19T06:55:44.227Z,3.2
2023-01-19T06:56:47.601Z,3.2
2023-01-19T06:57:50.912Z,3.2
2023-01-19T06:58:53.626Z,3.2
2023-01-19T06:59:56.676Z,3.2
2023-01-19T07:01:00.132Z,3.2
2023-01-19T07:02:29.200Z,3.2
2023-01-19T07:03:34.147Z,3.2
2023-01-19T07:04:37.888Z,3.2
2023-01-19T07:05:41.585Z,3.2
2023-01-19T07:06:45.284Z,3.2
2023-01-19T07:07:48.649Z,3.2
2023-01-19T07:08:51.803Z,3.2
2023-01-19T07:09:55.091Z,3.2
2023-01-19T07:11:33.450Z,3.3
2023-01-19T07:12:36.599Z,3.3
2023-01-19T07:13:40.060Z,3.3
2023-01-19T07:14:44.089Z,3.3
2023-01-19T07:15:47.503Z,3.3
2023-01-19T07:16:50.930Z,3.4
2023-01-19T07:17:54.879Z,3.4
2023-01-19T07:18:58.697Z,3.4
2023-01-19T07:20:01.919Z,3.4
2023-01-19T07:21:05.043Z,3.4
2023-01-19T07:22:08.518Z,3.4
2023-01-19T07:23:11.244Z,3.4
2023-01-19T07:24:15.046Z,3.4
2023-01-19T07:25:18.234Z,3.4
2023-01-19T07:26:22.113Z,3.4
2023-01-19T07:27:25.850Z,3.4
2023-01-19T07:28:29.044Z,3.4
2023-01-19T07:29:32.807Z,3.4
2023-01-19T07:30:36.492Z,3.4
2023-01-19T07:31:40.866Z,3.5
2023-01-19T07:32:44.628Z,3.4
2023-01-19T07:33:48.032Z,3.4
2023-01-19T07:34:51.817Z,3.4
2023-01-19T07:35:55.385Z,3.4
2023-01-19T07:36:59.018Z,3.4
2023-01-19T07:38:02.068Z,3.4
2023-01-19T07:39:05.729Z,3.4
2023-01-19T07:40:08.987Z,3.4
2023-01-19T07:41:12.576Z,3.4
2023-01-19T07:42:15.930Z,3.4
2023-01-19T07:43:19.364Z,3.4
2023-01-19T07:44:22.608Z,3.4
2023-01-19T07:45:28.773Z,3.4
2023-01-19T07:46:31.862Z,3.4
2023-01-19T07:47:34.565Z,3.4
2023-01-19T07:48:37.144Z,3.4
2023-01-19T07:49:40.656Z,3.4
2023-01-19T07:50:44.856Z,3.4
2023-01-19T07:51:48.954Z,3.4
2023-01-19T07:52:52.082Z,3.5
2023-01-19T07:53:55.377Z,3.5
2023-01-19T07:54:58.803Z,3.5
2023-01-19T07:56:02.236Z,3.5
2023-01-19T07:57:04.682Z,3.5
2023-01-19T07:58:07.780Z,3.5
2023-01-19T07:59:12.046Z,3.5
2023-01-19T08:00:15.219Z,3.6
2023-01-19T08:01:19.339Z,3.5
2023-01-19T08:02:23.955Z,3.5
2023-01-19T08:03:27.222Z,3.5
2023-01-19T08:04:30.429Z,3.5
2023-01-19T08:05:34.765Z,3.5
2023-01-19T08:06:38.373Z,3.5
2023-01-19T08:07:42.360Z,3.6
2023-01-19T08:08:45.518Z,3.6
2023-01-19T08:09:48.255Z,3.5
2023-01-19T08:10:51.823Z,3.5
2023-01-19T08:11:55.293Z,3.5
2023-01-19T08:12:58.765Z,3.5
2023-01-19T08:14:04.276Z,3.5
2023-01-19T08:15:10.849Z,3.5
2023-01-19T08:16:14.304Z,3.5
2023-01-19T08:17:16.819Z,3.5
2023-01-19T08:18:19.824Z,3.5
2023-01-19T08:19:23.551Z,3.6
2023-01-19T08:20:27.316Z,3.6
2023-01-19T08:21:30.111Z,3.6
2023-01-19T08:22:32.734Z,3.6
2023-01-19T08:23:36.615Z,3.6
2023-01-19T08:24:40.004Z,3.6
2023-01-19T08:25:43.813Z,3.7
2023-01-19T08:26:47.525Z,3.6
2023-01-19T08:27:50.800Z,3.6
2023-01-19T08:28:54.605Z,3.7
2023-01-19T08:29:58.050Z,3.7
2023-01-19T08:31:24.574Z,3.7
2023-01-19T08:32:29.523Z,3.7
2023-01-19T08:33:32.138Z,3.7
2023-01-19T08:34:35.518Z,3.7
2023-01-19T08:35:38.957Z,3.8
2023-01-19T08:36:43.028Z,3.7
2023-01-19T08:37:47.118Z,3.7
2023-01-19T08:38:50.741Z,3.8
2023-01-19T08:39:54.435Z,3.8
2023-01-19T08:40:57.821Z,3.8
2023-01-19T08:42:00.887Z,3.8
2023-01-19T08:43:04.609Z,3.8
2023-01-19T08:44:08.387Z,3.8
2023-01-19T08:45:12.051Z,3.8
2023-01-19T08:46:15.296Z,3.8
2023-01-19T08:47:18.770Z,3.8
2023-01-19T08:48:21.929Z,3.9
2023-01-19T08:49:25.168Z,3.9
2023-01-19T08:50:28.679Z,3.9
2023-01-19T08:51:32.380Z,3.9
2023-01-19T08:52:35.466Z,3.9
2023-01-19T08:53:39.187Z,3.9
2023-01-19T08:54:43.293Z,4
2023-01-19T08:55:46.150Z,4
2023-01-19T08:56:49.506Z,4
2023-01-19T08:57:53.267Z,4
2023-01-19T09:08:09.467Z,4
2023-01-19T09:09:12.998Z,4.2
2023-01-19T09:10:16.786Z,4.2
2023-01-19T09:11:20.053Z,4.2
2023-01-19T09:12:24.213Z,4.2
2023-01-19T09:13:27.487Z,4.3
2023-01-19T09:14:30.873Z,4.2
2023-01-19T09:15:34.548Z,4.3
2023-01-19T09:16:37.975Z,4.3
2023-01-19T09:17:41.066Z,4.3
2023-01-19T09:18:44.149Z,4.3
2023-01-19T09:19:47.623Z,4.3
2023-01-19T09:20:51.043Z,4.3
2023-01-19T09:21:54.401Z,4.4
2023-01-19T09:22:56.979Z,4.4
2023-01-19T09:24:00.132Z,4.4
2023-01-19T09:25:03.471Z,4.4
2023-01-19T09:26:07.376Z,4.4
2023-01-19T09:27:10.134Z,4.4
2023-01-19T09:28:13.631Z,4.4
2023-01-19T09:29:16.773Z,4.4
2023-01-19T09:30:19.861Z,4.4
2023-01-19T09:31:24.415Z,4.4
2023-01-19T09:32:28.536Z,4.4
2023-01-19T09:33:31.927Z,4.4
2023-01-19T09:34:35.960Z,4.4
2023-01-19T09:35:39.709Z,4.4
2023-01-19T09:36:43.085Z,4.4
2023-01-19T09:37:46.445Z,4.4
2023-01-19T09:38:50.400Z,4.4
2023-01-19T09:39:53.912Z,4.4
2023-01-19T09:40:57.882Z,4.4
2023-01-19T09:42:01.847Z,4.4
2023-01-19T09:43:05.364Z,4.4
2023-01-19T09:44:09.046Z,4.5
2023-01-19T09:45:13.284Z,4.5
2023-01-19T09:46:17.345Z,4.5
2023-01-19T09:47:20.827Z,4.5
2023-01-19T09:48:24.280Z,4.5
2023-01-19T09:49:27.040Z,4.6
2023-01-19T09:50:30.174Z,4.6
2023-01-19T09:51:34.107Z,4.6
2023-01-19T09:52:37.198Z,4.6
2023-01-19T09:53:40.304Z,4.6
2023-01-19T09:54:43.644Z,4.6
2023-01-19T09:55:46.831Z,4.6
2023-01-19T09:56:53.541Z,4.7
2023-01-19T09:57:57.129Z,4.7
2023-01-19T09:59:01.030Z,4.7
2023-01-19T10:00:04.116Z,4.7
2023-01-19T10:01:07.831Z,4.7
2023-01-19T10:02:11.431Z,4.7
2023-01-19T10:03:15.039Z,4.8
2023-01-19T10:04:17.967Z,4.8
2023-01-19T10:05:21.256Z,4.8
2023-01-19T10:06:24.709Z,4.8
2023-01-19T10:07:28.329Z,4.9
2023-01-19T10:08:31.716Z,4.9
2023-01-19T10:09:35.109Z,4.9
2023-01-19T10:10:37.611Z,4.9
2023-01-19T10:11:54.096Z,5
2023-01-19T10:12:57.970Z,5
2023-01-19T10:14:03.375Z,5.1
2023-01-19T10:15:06.523Z,5.1
2023-01-19T10:16:09.789Z,5.1
2023-01-19T10:17:12.360Z,5.2
2023-01-19T10:18:15.797Z,5.2
2023-01-19T10:19:18.313Z,5.3
2023-01-19T10:20:21.680Z,5.3
2023-01-19T10:21:25.477Z,5.4
2023-01-19T10:22:29.498Z,5.6
2023-01-19T10:23:33.442Z,5.7
2023-01-19T10:24:37.343Z,5.8
2023-01-19T10:25:41.184Z,5.9
2023-01-19T10:26:45.256Z,5.9
2023-01-19T10:27:47.501Z,5.9
2023-01-19T10:28:51.875Z,5.9
2023-01-19T10:29:56.216Z,5.9
2023-01-19T10:30:59.877Z,5.9
2023-01-19T10:32:04.677Z,5.8
2023-01-19T10:33:08.023Z,5.8
2023-01-19T10:34:11.780Z,5.8
2023-01-19T10:35:15.243Z,5.8
2023-01-19T10:36:18.305Z,5.8
2023-01-19T10:37:21.514Z,5.8
2023-01-19T10:38:25.095Z,5.8
2023-01-19T10:39:28.913Z,5.8
2023-01-19T10:40:32.740Z,5.9
2023-01-19T10:41:36.342Z,5.9
2023-01-19T10:42:40.587Z,5.9
2023-01-19T10:43:43.800Z,6
2023-01-19T10:44:47.508Z,6
2023-01-19T10:45:52.185Z,6
2023-01-19T10:46:55.368Z,6
2023-01-19T10:47:58.829Z,6
2023-01-19T10:49:02.555Z,6
2023-01-19T10:50:05.043Z,6.1
2023-01-19T10:51:08.625Z,6.2
2023-01-19T10:52:12.073Z,6.3
2023-01-19T10:53:15.112Z,6.4
2023-01-19T10:54:18.304Z,6.5
2023-01-19T10:55:22.095Z,6.6
2023-01-19T10:56:25.661Z,6.7
2023-01-19T10:57:29.144Z,6.8
2023-01-19T10:58:32.741Z,6.9
2023-01-19T10:59:35.964Z,7
2023-01-19T11:00:39.629Z,7.1
2023-01-19T11:01:44.901Z,7.2
2023-01-19T11:02:48.653Z,7.4
2023-01-19T11:03:52.164Z,7.6
2023-01-19T11:04:55.418Z,7.7
2023-01-19T11:05:59.307Z,7.8
2023-01-19T11:07:01.803Z,7.9
2023-01-19T11:08:05.186Z,8
2023-01-19T11:09:08.195Z,8
2023-01-19T11:10:11.599Z,8
2023-01-19T11:11:14.147Z,8
2023-01-19T11:12:17.290Z,8
2023-01-19T11:13:20.447Z,8
2023-01-19T11:14:23.797Z,8
2023-01-19T11:15:27.091Z,8
2023-01-19T11:16:30.866Z,8
2023-01-19T11:17:35.351Z,8
2023-01-19T11:18:38.811Z,8
2023-01-19T11:19:42.213Z,8.1
2023-01-19T11:20:44.725Z,8.2
2023-01-19T11:21:48.074Z,8.3
2023-01-19T11:22:51.757Z,8.3
2023-01-19T11:23:55.494Z,8.4
2023-01-19T11:24:58.881Z,8.5
2023-01-19T11:26:02.124Z,8.6
2023-01-19T11:27:05.776Z,8.7
2023-01-19T11:28:09.116Z,8.8
2023-01-19T11:29:12.471Z,8.8
2023-01-19T11:30:15.570Z,8.9
2023-01-19T11:31:19.437Z,9
2023-01-19T11:32:23.727Z,9.1
2023-01-19T11:33:27.551Z,9.2
2023-01-19T11:34:30.267Z,9.3
2023-01-19T11:35:34.383Z,9.3
2023-01-19T11:36:37.509Z,9.4
2023-01-19T11:37:40.803Z,9.4
2023-01-19T11:38:44.278Z,9.4
2023-01-19T11:39:48.037Z,9.4
2023-01-19T11:40:51.846Z,9.3
2023-01-19T11:41:55.013Z,9.3
2023-01-19T11:42:58.379Z,9.2
2023-01-19T11:44:02.878Z,9.1
2023-01-19T11:45:05.597Z,9.1
2023-01-19T11:46:09.172Z,9
2023-01-19T11:47:12.281Z,8.9
2023-01-19T11:48:15.425Z,8.9
2023-01-19T11:49:19.175Z,8.9
2023-01-19T11:50:22.587Z,8.8
2023-01-19T11:51:26.449Z,8.8
2023-01-19T11:52:29.819Z,8.8
2023-01-19T11:53:32.914Z,8.8
2023-01-19T11:54:36.007Z,8.8
2023-01-19T11:55:38.731Z,8.8
2023-01-19T11:56:42.469Z,8.8
2023-01-19T11:57:46.263Z,8.8
2023-01-19T11:58:49.667Z,8.7
2023-01-19T11:59:52.781Z,8.7
2023-01-19T12:00:55.943Z,8.6
2023-01-19T12:01:59.827Z,8.5
2023-01-19T12:03:03.154Z,8.4
2023-01-19T12:04:06.857Z,8.4
2023-01-19T12:05:11.056Z,8.3
2023-01-19T12:06:14.162Z,8.2
2023-01-19T12:07:17.165Z,8.1
2023-01-19T12:08:20.331Z,8
2023-01-19T12:09:24.547Z,7.9
2023-01-19T12:10:28.281Z,7.8
2023-01-19T12:11:31.696Z,7.8
2023-01-19T12:12:35.036Z,7.8
2023-01-19T12:13:38.848Z,7.7
2023-01-19T12:14:41.885Z,7.7
2023-01-19T12:15:44.604Z,7.7
2023-01-19T12:16:47.738Z,7.7
2023-01-19T12:17:51.397Z,7.7
2023-01-19T12:18:53.994Z,7.6
2023-01-19T12:19:57.495Z,7.6
2023-01-19T12:21:04.992Z,7.6
2023-01-19T12:22:08.343Z,7.6
2023-01-19T12:23:11.990Z,7.5
2023-01-19T12:24:14.778Z,7.5
2023-01-19T12:25:18.719Z,7.5
2023-01-19T12:26:22.093Z,7.4
2023-01-19T12:27:25.823Z,7.4
2023-01-19T12:28:28.919Z,7.4
2023-01-19T12:29:32.064Z,7.3
2023-01-19T12:30:35.988Z,7.3
2023-01-19T12:31:39.876Z,7.3
2023-01-19T12:32:43.560Z,7.3
2023-01-19T12:33:47.261Z,7.3
2023-01-19T12:34:51.017Z,7.2
2023-01-19T12:35:55.153Z,7.2
2023-01-19T12:36:59.022Z,7.2
2023-01-19T12:38:02.530Z,7.1
2023-01-19T12:39:05.997Z,7.1
2023-01-19T12:40:08.803Z,7.1
2023-01-19T12:41:11.815Z,7.1
2023-01-19T12:42:14.643Z,7.1
2023-01-19T12:43:17.710Z,7
2023-01-19T12:44:20.804Z,7
2023-01-19T12:45:24.528Z,7
2023-01-19T12:46:28.122Z,7
2023-01-19T12:47:32.097Z,7
2023-01-19T12:48:34.907Z,6.9
2023-01-19T12:49:38.027Z,6.9
2023-01-19T12:50:41.803Z,6.9
2023-01-19T12:51:45.601Z,6.9
2023-01-19T12:52:49.451Z,6.9
2023-01-19T12:53:52.515Z,6.9
2023-01-19T12:54:55.581Z,6.9
2023-01-19T12:55:59.314Z,6.9
2023-01-19T12:57:02.708Z,6.8
2023-01-19T12:58:06.394Z,6.8
2023-01-19T12:59:09.530Z,6.8
2023-01-19T13:00:13.319Z,6.8
2023-01-19T13:01:16.799Z,6.8
2023-01-19T13:02:20.984Z,6.8
2023-01-19T13:03:24.306Z,6.8
2023-01-19T13:04:27.506Z,6.8
2023-01-19T13:05:33.886Z,6.8
2023-01-19T13:06:37.570Z,6.8
2023-01-19T13:07:41.066Z,6.8
2023-01-19T13:08:45.245Z,6.8
2023-01-19T13:09:48.371Z,6.8
2023-01-19T13:10:51.634Z,6.8
2023-01-19T13:12:01.783Z,6.8
2023-01-19T13:13:04.615Z,6.8
2023-01-19T13:14:08.235Z,6.8
2023-01-19T13:15:11.016Z,6.8
2023-01-19T13:16:14.527Z,6.8
2023-01-19T13:17:18.567Z,6.7
2023-01-19T13:18:21.934Z,6.7
2023-01-19T13:19:25.323Z,6.7
2023-01-19T13:20:28.708Z,6.7
2023-01-19T13:21:32.740Z,6.7
2023-01-19T13:22:36.199Z,6.7
2023-01-19T13:23:39.402Z,6.7
2023-01-19T13:24:43.281Z,6.7
2023-01-19T13:25:46.445Z,6.7
2023-01-19T13:26:50.055Z,6.7
2023-01-19T13:27:53.164Z,6.7
2023-01-19T13:28:56.186Z,6.7
2023-01-19T13:30:00.326Z,6.7
2023-01-19T13:31:06.139Z,6.8
2023-01-19T13:32:09.336Z,6.8
2023-01-19T13:33:12.673Z,6.7
2023-01-19T13:34:15.774Z,6.7
2023-01-19T13:35:18.845Z,6.7
2023-01-19T13:36:21.708Z,6.7
2023-01-19T13:37:25.126Z,6.7
2023-01-19T13:38:28.014Z,6.7
2023-01-19T13:39:31.823Z,6.7
2023-01-19T13:40:36.001Z,6.7
2023-01-19T13:41:39.798Z,6.7
2023-01-19T13:42:43.467Z,6.7
2023-01-19T13:43:46.300Z,6.7
2023-01-19T13:44:50.002Z,6.7
2023-01-19T13:45:54.540Z,6.7
2023-01-19T13:46:58.004Z,6.7
2023-01-19T13:48:01.433Z,6.7
2023-01-19T13:49:04.244Z,6.7
2023-01-19T13:50:07.735Z,6.7
2023-01-19T13:51:10.557Z,6.7
2023-01-19T13:52:13.445Z,6.6
2023-01-19T13:53:17.300Z,6.6
2023-01-19T13:54:20.748Z,6.6
2023-01-19T13:55:24.938Z,6.6
2023-01-19T13:56:29.008Z,6.5
2023-01-19T13:57:32.550Z,6.6
2023-01-19T13:58:36.109Z,6.6
2023-01-19T13:59:39.763Z,6.5
2023-01-19T14:00:42.806Z,6.5
2023-01-19T14:01:47.099Z,6.5
2023-01-19T14:02:52.215Z,6.5
2023-01-19T14:03:55.460Z,6.5
2023-01-19T14:04:58.661Z,6.5
2023-01-19T14:06:01.639Z,6.5
2023-01-19T14:07:04.657Z,6.5
2023-01-19T14:08:07.338Z,6.5
2023-01-19T14:09:10.895Z,6.5
2023-01-19T14:10:14.261Z,6.5
2023-01-19T14:11:18.463Z,6.5
2023-01-19T14:12:21.979Z,6.5
2023-01-19T14:13:25.499Z,6.5
2023-01-19T14:14:28.898Z,6.5
2023-01-19T14:15:32.672Z,6.5
2023-01-19T14:16:36.331Z,6.5
2023-01-19T14:17:39.394Z,6.5
2023-01-19T14:18:43.040Z,6.5
2023-01-19T14:19:46.297Z,6.5
2023-01-19T14:20:49.847Z,6.5
2023-01-19T14:21:53.278Z,6.4
2023-01-19T14:22:55.805Z,6.4
2023-01-19T14:23:59.448Z,6.4
2023-01-19T14:25:02.627Z,6.4
2023-01-19T14:26:06.085Z,6.4
2023-01-19T14:27:09.526Z,6.4
2023-01-19T14:28:13.281Z,6.3
2023-01-19T14:29:17.003Z,6.3
2023-01-19T14:30:20.654Z,6.3
2023-01-19T14:31:24.475Z,6.3
2023-01-19T14:32:28.921Z,6.3
2023-01-19T14:33:32.019Z,6.2
2023-01-19T14:34:35.700Z,6.2
2023-01-19T14:35:39.396Z,6.2
2023-01-19T14:36:42.758Z,6.1
2023-01-19T14:37:45.852Z,6.1
2023-01-19T14:38:49.170Z,6.1
2023-01-19T14:39:52.692Z,6.1
2023-01-19T14:40:55.625Z,6.1
2023-01-19T14:41:59.298Z,6.1
2023-01-19T14:43:03.458Z,6
2023-01-19T14:44:07.320Z,6
2023-01-19T14:45:11.508Z,6
2023-01-19T14:46:14.428Z,6
2023-01-19T14:47:17.845Z,6
2023-01-19T14:48:20.735Z,6
2023-01-19T14:49:24.293Z,6
2023-01-19T14:50:26.831Z,6
2023-01-19T14:51:30.136Z,6
2023-01-19T14:52:33.333Z,6
2023-01-19T14:53:36.614Z,5.9
2023-01-19T14:54:40.440Z,5.9
2023-01-19T14:55:44.120Z,5.9